sensor_id;sensor_type;location;lat;lon;timestamp;temperature;humidity
78696;SHT31;68030;51.980;5.646;2023-08-07T00:00:20;15.8;76.3
78696;SHT31;68030;51.980;5.646;2023-08-07T00:02:48;15.8;76.7
78696;SHT31;68030;51.980;5.646;2023-08-07T00:05:17;15.7;77.1
78696;SHT31;68030;51.980;5.646;2023-08-07T00:07:47;15.7;77.5
78696;SHT31;68030;51.980;5.646;2023-08-07T00:10:16;15.6;77.7
78696;SHT31;68030;51.980;5.646;2023-08-07T00:12:45;15.6;77.9
78696;SHT31;68030;51.980;5.646;2023-08-07T00:15:13;15.6;78.2
78696;SHT31;68030;51.980;5.646;2023-08-07T00:17:42;15.6;78.3
78696;SHT31;68030;51.980;5.646;2023-08-07T00:20:13;15.5;78.3
78696;SHT31;68030;51.980;5.646;2023-08-07T00:22:42;15.5;78.4
78696;SHT31;68030;51.980;5.646;2023-08-07T00:25:12;15.5;78.5
78696;SHT31;68030;51.980;5.646;2023-08-07T00:27:41;15.5;78.7
78696;SHT31;68030;51.980;5.646;2023-08-07T00:30:10;15.4;79.0
78696;SHT31;68030;51.980;5.646;2023-08-07T00:32:39;15.4;79.0
78696;SHT31;68030;51.980;5.646;2023-08-07T00:35:09;15.4;79.2
78696;SHT31;68030;51.980;5.646;2023-08-07T00:37:37;15.4;79.2
78696;SHT31;68030;51.980;5.646;2023-08-07T00:40:07;15.4;79.3
78696;SHT31;68030;51.980;5.646;2023-08-07T00:42:37;15.4;79.1
78696;SHT31;68030;51.980;5.646;2023-08-07T00:45:07;15.4;79.2
78696;SHT31;68030;51.980;5.646;2023-08-07T00:47:37;15.5;79.2
78696;SHT31;68030;51.980;5.646;2023-08-07T00:50:07;15.5;79.3
78696;SHT31;68030;51.980;5.646;2023-08-07T00:52:37;15.5;79.1
78696;SHT31;68030;51.980;5.646;2023-08-07T00:55:07;15.5;79.0
78696;SHT31;68030;51.980;5.646;2023-08-07T00:57:36;15.5;78.9
78696;SHT31;68030;51.980;5.646;2023-08-07T01:00:07;15.5;78.6
78696;SHT31;68030;51.980;5.646;2023-08-07T01:02:36;15.5;78.7
78696;SHT31;68030;51.980;5.646;2023-08-07T01:05:05;15.5;78.4
78696;SHT31;68030;51.980;5.646;2023-08-07T01:07:33;15.6;77.8
78696;SHT31;68030;51.980;5.646;2023-08-07T01:10:02;15.6;77.5
78696;SHT31;68030;51.980;5.646;2023-08-07T01:12:38;15.6;77.0
78696;SHT31;68030;51.980;5.646;2023-08-07T01:15:14;15.6;77.0
78696;SHT31;68030;51.980;5.646;2023-08-07T01:17:46;15.6;76.9
78696;SHT31;68030;51.980;5.646;2023-08-07T01:20:17;15.6;77.0
78696;SHT31;68030;51.980;5.646;2023-08-07T01:22:46;15.6;76.9
78696;SHT31;68030;51.980;5.646;2023-08-07T01:25:15;15.6;76.9
78696;SHT31;68030;51.980;5.646;2023-08-07T01:27:54;15.6;77.3
78696;SHT31;68030;51.980;5.646;2023-08-07T01:30:29;15.6;77.2
78696;SHT31;68030;51.980;5.646;2023-08-07T01:33:08;15.6;77.2
78696;SHT31;68030;51.980;5.646;2023-08-07T01:35:41;15.6;77.1
78696;SHT31;68030;51.980;5.646;2023-08-07T01:38:11;15.6;77.1
78696;SHT31;68030;51.980;5.646;2023-08-07T01:40:42;15.6;77.5
78696;SHT31;68030;51.980;5.646;2023-08-07T01:43:13;15.6;77.5
78696;SHT31;68030;51.980;5.646;2023-08-07T01:45:41;15.7;77.3
78696;SHT31;68030;51.980;5.646;2023-08-07T01:48:10;15.7;76.4
78696;SHT31;68030;51.980;5.646;2023-08-07T01:50:39;15.7;76.4
78696;SHT31;68030;51.980;5.646;2023-08-07T01:53:08;15.7;76.4
78696;SHT31;68030;51.980;5.646;2023-08-07T01:55:36;15.8;76.0
78696;SHT31;68030;51.980;5.646;2023-08-07T01:58:05;15.8;75.8
78696;SHT31;68030;51.980;5.646;2023-08-07T02:00:33;15.8;75.9
78696;SHT31;68030;51.980;5.646;2023-08-07T02:03:02;15.8;75.7
78696;SHT31;68030;51.980;5.646;2023-08-07T02:05:30;15.9;75.2
78696;SHT31;68030;51.980;5.646;2023-08-07T02:07:59;15.9;74.8
78696;SHT31;68030;51.980;5.646;2023-08-07T02:10:27;15.9;74.7
78696;SHT31;68030;51.980;5.646;2023-08-07T02:12:57;15.9;74.2
78696;SHT31;68030;51.980;5.646;2023-08-07T02:15:26;15.9;74.4
78696;SHT31;68030;51.980;5.646;2023-08-07T02:17:55;15.9;74.3
78696;SHT31;68030;51.980;5.646;2023-08-07T02:20:23;15.9;74.3
78696;SHT31;68030;51.980;5.646;2023-08-07T02:22:52;15.9;74.3
78696;SHT31;68030;51.980;5.646;2023-08-07T02:25:20;15.9;74.0
78696;SHT31;68030;51.980;5.646;2023-08-07T02:27:49;15.9;74.2
78696;SHT31;68030;51.980;5.646;2023-08-07T02:30:18;15.9;74.0
78696;SHT31;68030;51.980;5.646;2023-08-07T02:32:46;15.9;74.0
78696;SHT31;68030;51.980;5.646;2023-08-07T02:35:15;15.9;73.8
78696;SHT31;68030;51.980;5.646;2023-08-07T02:37:46;15.9;74.1
78696;SHT31;68030;51.980;5.646;2023-08-07T02:40:14;16.0;74.5
78696;SHT31;68030;51.980;5.646;2023-08-07T02:42:45;16.0;74.0
78696;SHT31;68030;51.980;5.646;2023-08-07T02:45:13;16.0;74.2
78696;SHT31;68030;51.980;5.646;2023-08-07T02:47:42;16.0;74.2
78696;SHT31;68030;51.980;5.646;2023-08-07T02:50:11;16.0;74.1
78696;SHT31;68030;51.980;5.646;2023-08-07T02:52:39;16.0;74.1
78696;SHT31;68030;51.980;5.646;2023-08-07T02:55:08;16.0;73.7
78696;SHT31;68030;51.980;5.646;2023-08-07T02:57:38;16.0;74.0
78696;SHT31;68030;51.980;5.646;2023-08-07T03:00:08;16.0;74.2
78696;SHT31;68030;51.980;5.646;2023-08-07T03:02:37;16.1;74.1
78696;SHT31;68030;51.980;5.646;2023-08-07T03:05:07;16.1;74.0
78696;SHT31;68030;51.980;5.646;2023-08-07T03:07:35;16.1;73.8
78696;SHT31;68030;51.980;5.646;2023-08-07T03:10:05;16.1;73.1
78696;SHT31;68030;51.980;5.646;2023-08-07T03:12:35;16.1;73.9
78696;SHT31;68030;51.980;5.646;2023-08-07T03:15:06;16.1;74.0
78696;SHT31;68030;51.980;5.646;2023-08-07T03:17:35;16.1;74.3
78696;SHT31;68030;51.980;5.646;2023-08-07T03:20:08;16.1;74.3
78696;SHT31;68030;51.980;5.646;2023-08-07T03:22:37;16.1;74.6
78696;SHT31;68030;51.980;5.646;2023-08-07T03:25:06;16.1;74.9
78696;SHT31;68030;51.980;5.646;2023-08-07T03:27:35;16.1;75.0
78696;SHT31;68030;51.980;5.646;2023-08-07T03:30:05;16.1;75.0
78696;SHT31;68030;51.980;5.646;2023-08-07T03:32:33;16.1;75.1
78696;SHT31;68030;51.980;5.646;2023-08-07T03:35:02;16.1;75.3
78696;SHT31;68030;51.980;5.646;2023-08-07T03:37:31;16.0;75.4
78696;SHT31;68030;51.980;5.646;2023-08-07T03:40:00;16.0;75.5
78696;SHT31;68030;51.980;5.646;2023-08-07T03:42:28;16.0;75.6
78696;SHT31;68030;51.980;5.646;2023-08-07T03:44:57;16.0;75.2
78696;SHT31;68030;51.980;5.646;2023-08-07T03:47:26;16.0;75.1
78696;SHT31;68030;51.980;5.646;2023-08-07T03:49:54;16.0;75.1
78696;SHT31;68030;51.980;5.646;2023-08-07T03:52:23;16.0;75.2
78696;SHT31;68030;51.980;5.646;2023-08-07T03:54:52;16.0;75.2
78696;SHT31;68030;51.980;5.646;2023-08-07T03:57:20;16.0;75.4
78696;SHT31;68030;51.980;5.646;2023-08-07T03:59:49;16.0;75.3
78696;SHT31;68030;51.980;5.646;2023-08-07T04:02:18;15.9;75.6
78696;SHT31;68030;51.980;5.646;2023-08-07T04:04:46;15.9;75.7
78696;SHT31;68030;51.980;5.646;2023-08-07T04:07:15;15.9;75.6
78696;SHT31;68030;51.980;5.646;2023-08-07T04:09:43;15.9;75.6
78696;SHT31;68030;51.980;5.646;2023-08-07T04:12:14;15.9;75.7
78696;SHT31;68030;51.980;5.646;2023-08-07T04:14:42;15.9;75.6
78696;SHT31;68030;51.980;5.646;2023-08-07T04:17:11;15.9;75.7
78696;SHT31;68030;51.980;5.646;2023-08-07T04:19:39;15.9;75.6
78696;SHT31;68030;51.980;5.646;2023-08-07T04:22:08;15.9;75.7
78696;SHT31;68030;51.980;5.646;2023-08-07T04:24:36;15.9;75.9
78696;SHT31;68030;51.980;5.646;2023-08-07T04:27:05;15.9;76.1
78696;SHT31;68030;51.980;5.646;2023-08-07T04:29:34;15.9;76.2
78696;SHT31;68030;51.980;5.646;2023-08-07T04:32:03;15.9;76.2
78696;SHT31;68030;51.980;5.646;2023-08-07T04:34:33;15.9;76.6
78696;SHT31;68030;51.980;5.646;2023-08-07T04:37:01;16.0;76.9
78696;SHT31;68030;51.980;5.646;2023-08-07T04:39:31;16.0;76.4
78696;SHT31;68030;51.980;5.646;2023-08-07T04:42:00;16.0;76.4
78696;SHT31;68030;51.980;5.646;2023-08-07T04:44:29;16.0;76.5
78696;SHT31;68030;51.980;5.646;2023-08-07T04:46:57;16.0;76.7
78696;SHT31;68030;51.980;5.646;2023-08-07T04:49:26;16.0;76.9
78696;SHT31;68030;51.980;5.646;2023-08-07T04:51:54;16.0;76.9
78696;SHT31;68030;51.980;5.646;2023-08-07T04:54:22;16.1;76.7
78696;SHT31;68030;51.980;5.646;2023-08-07T04:56:51;16.1;76.4
78696;SHT31;68030;51.980;5.646;2023-08-07T04:59:20;16.1;76.5
78696;SHT31;68030;51.980;5.646;2023-08-07T05:01:48;16.1;76.6
78696;SHT31;68030;51.980;5.646;2023-08-07T05:04:17;16.1;76.5
78696;SHT31;68030;51.980;5.646;2023-08-07T05:06:45;16.1;76.6
78696;SHT31;68030;51.980;5.646;2023-08-07T05:09:15;16.1;76.4
78696;SHT31;68030;51.980;5.646;2023-08-07T05:11:43;16.2;76.1
78696;SHT31;68030;51.980;5.646;2023-08-07T05:14:12;16.2;76.0
78696;SHT31;68030;51.980;5.646;2023-08-07T05:16:41;16.2;76.2
78696;SHT31;68030;51.980;5.646;2023-08-07T05:19:09;16.2;76.4
78696;SHT31;68030;51.980;5.646;2023-08-07T05:21:38;16.2;76.5
78696;SHT31;68030;51.980;5.646;2023-08-07T05:24:06;16.3;76.6
78696;SHT31;68030;51.980;5.646;2023-08-07T05:26:35;16.3;76.3
78696;SHT31;68030;51.980;5.646;2023-08-07T05:29:04;16.3;76.1
78696;SHT31;68030;51.980;5.646;2023-08-07T05:31:33;16.3;76.1
78696;SHT31;68030;51.980;5.646;2023-08-07T05:34:02;16.3;75.8
78696;SHT31;68030;51.980;5.646;2023-08-07T05:36:31;16.3;75.9
78696;SHT31;68030;51.980;5.646;2023-08-07T05:39:01;16.4;75.8
78696;SHT31;68030;51.980;5.646;2023-08-07T05:41:30;16.4;75.8
78696;SHT31;68030;51.980;5.646;2023-08-07T05:43:59;16.4;75.8
78696;SHT31;68030;51.980;5.646;2023-08-07T05:46:27;16.4;75.9
78696;SHT31;68030;51.980;5.646;2023-08-07T05:48:56;16.4;75.9
78696;SHT31;68030;51.980;5.646;2023-08-07T05:51:24;16.4;75.8
78696;SHT31;68030;51.980;5.646;2023-08-07T05:53:53;16.4;75.6
78696;SHT31;68030;51.980;5.646;2023-08-07T05:56:21;16.4;75.9
78696;SHT31;68030;51.980;5.646;2023-08-07T05:58:50;16.4;75.5
78696;SHT31;68030;51.980;5.646;2023-08-07T06:01:18;16.4;75.5
78696;SHT31;68030;51.980;5.646;2023-08-07T06:03:47;16.3;75.5
78696;SHT31;68030;51.980;5.646;2023-08-07T06:06:16;16.3;76.1
78696;SHT31;68030;51.980;5.646;2023-08-07T06:08:45;16.3;76.6
78696;SHT31;68030;51.980;5.646;2023-08-07T06:11:14;16.3;76.6
78696;SHT31;68030;51.980;5.646;2023-08-07T06:13:45;16.3;76.5
78696;SHT31;68030;51.980;5.646;2023-08-07T06:16:13;16.3;76.7
78696;SHT31;68030;51.980;5.646;2023-08-07T06:18:42;16.3;76.6
78696;SHT31;68030;51.980;5.646;2023-08-07T06:21:10;16.3;76.6
78696;SHT31;68030;51.980;5.646;2023-08-07T06:23:39;16.3;76.4
78696;SHT31;68030;51.980;5.646;2023-08-07T06:26:08;16.4;76.4
78696;SHT31;68030;51.980;5.646;2023-08-07T06:28:37;16.4;76.2
78696;SHT31;68030;51.980;5.646;2023-08-07T06:31:08;16.4;75.6
78696;SHT31;68030;51.980;5.646;2023-08-07T06:33:37;16.4;75.8
78696;SHT31;68030;51.980;5.646;2023-08-07T06:36:08;16.5;75.2
78696;SHT31;68030;51.980;5.646;2023-08-07T06:38:37;16.5;75.0
78696;SHT31;68030;51.980;5.646;2023-08-07T06:41:07;16.5;74.8
78696;SHT31;68030;51.980;5.646;2023-08-07T06:43:36;16.5;74.8
78696;SHT31;68030;51.980;5.646;2023-08-07T06:46:05;16.6;75.0
78696;SHT31;68030;51.980;5.646;2023-08-07T06:48:33;16.6;75.3
78696;SHT31;68030;51.980;5.646;2023-08-07T06:51:04;16.6;74.9
78696;SHT31;68030;51.980;5.646;2023-08-07T06:53:32;16.7;75.2
78696;SHT31;68030;51.980;5.646;2023-08-07T06:56:01;16.8;75.5
78696;SHT31;68030;51.980;5.646;2023-08-07T06:58:29;16.8;74.5
78696;SHT31;68030;51.980;5.646;2023-08-07T07:00:58;16.9;74.5
78696;SHT31;68030;51.980;5.646;2023-08-07T07:03:27;16.9;74.5
78696;SHT31;68030;51.980;5.646;2023-08-07T07:05:55;17.0;74.1
78696;SHT31;68030;51.980;5.646;2023-08-07T07:08:24;17.1;73.2
78696;SHT31;68030;51.980;5.646;2023-08-07T07:10:52;17.1;74.3
78696;SHT31;68030;51.980;5.646;2023-08-07T07:13:21;17.2;73.3
78696;SHT31;68030;51.980;5.646;2023-08-07T07:15:54;17.3;72.5
78696;SHT31;68030;51.980;5.646;2023-08-07T07:18:23;17.4;72.6
78696;SHT31;68030;51.980;5.646;2023-08-07T07:20:56;17.4;72.4
78696;SHT31;68030;51.980;5.646;2023-08-07T07:23:27;17.5;72.7
78696;SHT31;68030;51.980;5.646;2023-08-07T07:25:56;17.5;72.6
78696;SHT31;68030;51.980;5.646;2023-08-07T07:28:25;17.6;73.7
78696;SHT31;68030;51.980;5.646;2023-08-07T07:30:55;17.7;73.1
78696;SHT31;68030;51.980;5.646;2023-08-07T07:33:24;17.9;71.1
78696;SHT31;68030;51.980;5.646;2023-08-07T07:35:53;18.0;70.5
78696;SHT31;68030;51.980;5.646;2023-08-07T07:38:21;18.1;69.8
78696;SHT31;68030;51.980;5.646;2023-08-07T07:40:50;18.1;67.7
78696;SHT31;68030;51.980;5.646;2023-08-07T07:43:25;18.2;67.0
78696;SHT31;68030;51.980;5.646;2023-08-07T07:45:53;18.1;66.8
78696;SHT31;68030;51.980;5.646;2023-08-07T07:48:22;18.0;67.8
78696;SHT31;68030;51.980;5.646;2023-08-07T07:50:52;18.0;68.4
78696;SHT31;68030;51.980;5.646;2023-08-07T07:53:27;17.9;69.4
78696;SHT31;68030;51.980;5.646;2023-08-07T07:55:55;17.9;69.9
78696;SHT31;68030;51.980;5.646;2023-08-07T07:58:24;17.8;70.4
78696;SHT31;68030;51.980;5.646;2023-08-07T08:00:53;17.8;71.2
78696;SHT31;68030;51.980;5.646;2023-08-07T08:03:23;17.8;70.0
78696;SHT31;68030;51.980;5.646;2023-08-07T08:05:53;17.8;70.0
78696;SHT31;68030;51.980;5.646;2023-08-07T08:08:21;17.8;70.8
78696;SHT31;68030;51.980;5.646;2023-08-07T08:10:50;17.8;70.5
78696;SHT31;68030;51.980;5.646;2023-08-07T08:13:19;17.8;70.2
78696;SHT31;68030;51.980;5.646;2023-08-07T08:15:47;17.9;69.3
78696;SHT31;68030;51.980;5.646;2023-08-07T08:18:17;17.9;69.6
78696;SHT31;68030;51.980;5.646;2023-08-07T08:20:47;17.9;69.7
78696;SHT31;68030;51.980;5.646;2023-08-07T08:23:15;17.9;70.4
78696;SHT31;68030;51.980;5.646;2023-08-07T08:25:44;17.9;69.3
78696;SHT31;68030;51.980;5.646;2023-08-07T08:28:12;18.0;68.7
78696;SHT31;68030;51.980;5.646;2023-08-07T08:30:42;18.0;69.1
78696;SHT31;68030;51.980;5.646;2023-08-07T08:33:10;18.0;70.3
78696;SHT31;68030;51.980;5.646;2023-08-07T08:35:41;18.0;70.4
78696;SHT31;68030;51.980;5.646;2023-08-07T08:38:09;18.1;71.4
78696;SHT31;68030;51.980;5.646;2023-08-07T08:40:38;18.2;70.6
78696;SHT31;68030;51.980;5.646;2023-08-07T08:43:08;18.3;70.5
78696;SHT31;68030;51.980;5.646;2023-08-07T08:45:40;18.4;69.7
78696;SHT31;68030;51.980;5.646;2023-08-07T08:48:14;18.4;69.2
78696;SHT31;68030;51.980;5.646;2023-08-07T08:50:48;18.5;65.5
78696;SHT31;68030;51.980;5.646;2023-08-07T08:53:20;18.5;64.6
78696;SHT31;68030;51.980;5.646;2023-08-07T08:55:50;18.5;64.8
78696;SHT31;68030;51.980;5.646;2023-08-07T08:58:20;18.6;61.9
78696;SHT31;68030;51.980;5.646;2023-08-07T09:00:50;18.6;62.3
78696;SHT31;68030;51.980;5.646;2023-08-07T09:03:22;18.6;61.9
78696;SHT31;68030;51.980;5.646;2023-08-07T09:05:57;18.7;63.4
78696;SHT31;68030;51.980;5.646;2023-08-07T09:08:27;18.8;65.7
78696;SHT31;68030;51.980;5.646;2023-08-07T09:10:58;18.9;62.4
78696;SHT31;68030;51.980;5.646;2023-08-07T09:13:28;19.0;61.7
78696;SHT31;68030;51.980;5.646;2023-08-07T09:15:59;19.2;62.3
78696;SHT31;68030;51.980;5.646;2023-08-07T09:18:28;19.3;62.0
78696;SHT31;68030;51.980;5.646;2023-08-07T09:20:59;19.4;60.0
78696;SHT31;68030;51.980;5.646;2023-08-07T09:23:28;19.5;59.5
78696;SHT31;68030;51.980;5.646;2023-08-07T09:26:01;19.5;59.8
78696;SHT31;68030;51.980;5.646;2023-08-07T09:28:32;19.4;59.0
78696;SHT31;68030;51.980;5.646;2023-08-07T09:31:01;19.4;60.7
78696;SHT31;68030;51.980;5.646;2023-08-07T09:33:30;19.3;59.9
78696;SHT31;68030;51.980;5.646;2023-08-07T09:36:01;19.2;58.9
78696;SHT31;68030;51.980;5.646;2023-08-07T09:38:31;19.1;59.8
78696;SHT31;68030;51.980;5.646;2023-08-07T09:41:01;19.1;60.1
78696;SHT31;68030;51.980;5.646;2023-08-07T09:43:33;19.1;61.2
78696;SHT31;68030;51.980;5.646;2023-08-07T09:46:07;19.1;60.2
78696;SHT31;68030;51.980;5.646;2023-08-07T09:48:42;19.1;61.3
78696;SHT31;68030;51.980;5.646;2023-08-07T09:51:11;19.1;57.0
78696;SHT31;68030;51.980;5.646;2023-08-07T09:53:40;19.2;58.5
78696;SHT31;68030;51.980;5.646;2023-08-07T09:56:09;19.3;58.2
78696;SHT31;68030;51.980;5.646;2023-08-07T09:58:38;19.4;59.1
78696;SHT31;68030;51.980;5.646;2023-08-07T10:01:08;19.4;58.6
78696;SHT31;68030;51.980;5.646;2023-08-07T10:03:38;19.5;59.4
78696;SHT31;68030;51.980;5.646;2023-08-07T10:06:07;19.6;61.3
78696;SHT31;68030;51.980;5.646;2023-08-07T10:08:38;19.7;60.3
78696;SHT31;68030;51.980;5.646;2023-08-07T10:11:09;19.8;59.2
78696;SHT31;68030;51.980;5.646;2023-08-07T10:13:39;19.9;59.9
78696;SHT31;68030;51.980;5.646;2023-08-07T10:16:09;20.0;58.1
78696;SHT31;68030;51.980;5.646;2023-08-07T10:18:39;20.1;57.5
78696;SHT31;68030;51.980;5.646;2023-08-07T10:21:07;20.1;57.0
78696;SHT31;68030;51.980;5.646;2023-08-07T10:23:38;20.2;56.6
78696;SHT31;68030;51.980;5.646;2023-08-07T10:26:11;20.2;56.4
78696;SHT31;68030;51.980;5.646;2023-08-07T10:28:42;20.3;55.8
78696;SHT31;68030;51.980;5.646;2023-08-07T10:31:13;20.3;56.1
78696;SHT31;68030;51.980;5.646;2023-08-07T10:33:43;20.4;56.0
78696;SHT31;68030;51.980;5.646;2023-08-07T10:36:12;20.5;57.4
78696;SHT31;68030;51.980;5.646;2023-08-07T10:38:44;20.5;57.1
78696;SHT31;68030;51.980;5.646;2023-08-07T10:41:15;20.5;57.6
78696;SHT31;68030;51.980;5.646;2023-08-07T10:43:45;20.4;54.5
78696;SHT31;68030;51.980;5.646;2023-08-07T10:46:16;20.4;56.1
78696;SHT31;68030;51.980;5.646;2023-08-07T10:48:55;20.3;56.8
78696;SHT31;68030;51.980;5.646;2023-08-07T10:51:29;20.2;57.5
78696;SHT31;68030;51.980;5.646;2023-08-07T10:54:01;20.1;56.5
78696;SHT31;68030;51.980;5.646;2023-08-07T10:56:32;20.1;56.2
78696;SHT31;68030;51.980;5.646;2023-08-07T10:59:11;20.0;57.5
78696;SHT31;68030;51.980;5.646;2023-08-07T11:01:44;20.0;59.5
78696;SHT31;68030;51.980;5.646;2023-08-07T11:04:18;20.1;57.2
78696;SHT31;68030;51.980;5.646;2023-08-07T11:06:48;20.1;57.2
78696;SHT31;68030;51.980;5.646;2023-08-07T11:09:17;20.2;56.8
78696;SHT31;68030;51.980;5.646;2023-08-07T11:11:47;20.2;57.9
78696;SHT31;68030;51.980;5.646;2023-08-07T11:14:17;20.4;56.6
78696;SHT31;68030;51.980;5.646;2023-08-07T11:16:48;20.5;54.7
78696;SHT31;68030;51.980;5.646;2023-08-07T11:19:17;20.6;53.8
78696;SHT31;68030;51.980;5.646;2023-08-07T11:21:48;20.7;54.7
78696;SHT31;68030;51.980;5.646;2023-08-07T11:24:17;20.8;56.2
78696;SHT31;68030;51.980;5.646;2023-08-07T11:26:48;20.8;54.6
78696;SHT31;68030;51.980;5.646;2023-08-07T11:29:18;20.9;54.0
78696;SHT31;68030;51.980;5.646;2023-08-07T11:31:48;21.0;54.3
78696;SHT31;68030;51.980;5.646;2023-08-07T11:34:18;21.0;54.0
78696;SHT31;68030;51.980;5.646;2023-08-07T11:36:47;21.0;55.2
78696;SHT31;68030;51.980;5.646;2023-08-07T11:39:16;21.0;54.7
78696;SHT31;68030;51.980;5.646;2023-08-07T11:41:46;21.0;51.2
78696;SHT31;68030;51.980;5.646;2023-08-07T11:44:16;21.0;52.2
78696;SHT31;68030;51.980;5.646;2023-08-07T11:46:45;21.0;52.0
78696;SHT31;68030;51.980;5.646;2023-08-07T11:49:14;20.9;53.6
78696;SHT31;68030;51.980;5.646;2023-08-07T11:51:43;20.9;53.6
78696;SHT31;68030;51.980;5.646;2023-08-07T11:54:14;20.8;52.9
78696;SHT31;68030;51.980;5.646;2023-08-07T11:56:45;20.7;53.6
78696;SHT31;68030;51.980;5.646;2023-08-07T11:59:16;20.7;53.8
78696;SHT31;68030;51.980;5.646;2023-08-07T12:01:46;20.7;54.5
78696;SHT31;68030;51.980;5.646;2023-08-07T12:04:14;20.6;53.4
78696;SHT31;68030;51.980;5.646;2023-08-07T12:06:55;20.6;53.6
78696;SHT31;68030;51.980;5.646;2023-08-07T12:09:26;20.6;53.0
78696;SHT31;68030;51.980;5.646;2023-08-07T12:11:58;20.5;52.9
78696;SHT31;68030;51.980;5.646;2023-08-07T12:14:30;20.5;54.2
78696;SHT31;68030;51.980;5.646;2023-08-07T12:17:00;20.5;53.3
78696;SHT31;68030;51.980;5.646;2023-08-07T12:19:38;20.5;54.4
78696;SHT31;68030;51.980;5.646;2023-08-07T12:22:10;20.5;54.0
78696;SHT31;68030;51.980;5.646;2023-08-07T12:24:40;20.5;54.6
78696;SHT31;68030;51.980;5.646;2023-08-07T12:27:10;20.5;53.5
78696;SHT31;68030;51.980;5.646;2023-08-07T12:29:39;20.6;54.0
78696;SHT31;68030;51.980;5.646;2023-08-07T12:32:08;20.7;52.4
78696;SHT31;68030;51.980;5.646;2023-08-07T12:34:37;20.8;51.9
78696;SHT31;68030;51.980;5.646;2023-08-07T12:37:07;20.9;52.0
78696;SHT31;68030;51.980;5.646;2023-08-07T12:39:36;20.9;51.8
78696;SHT31;68030;51.980;5.646;2023-08-07T12:42:08;21.0;52.7
78696;SHT31;68030;51.980;5.646;2023-08-07T12:44:36;21.0;53.8
78696;SHT31;68030;51.980;5.646;2023-08-07T12:47:06;21.0;54.6
78696;SHT31;68030;51.980;5.646;2023-08-07T12:49:34;20.9;54.3
78696;SHT31;68030;51.980;5.646;2023-08-07T12:52:03;20.8;54.6
78696;SHT31;68030;51.980;5.646;2023-08-07T12:54:32;20.7;55.5
78696;SHT31;68030;51.980;5.646;2023-08-07T12:57:01;20.7;52.4
78696;SHT31;68030;51.980;5.646;2023-08-07T12:59:30;20.6;51.2
78696;SHT31;68030;51.980;5.646;2023-08-07T13:01:58;20.5;53.2
78696;SHT31;68030;51.980;5.646;2023-08-07T13:04:27;20.5;52.1
78696;SHT31;68030;51.980;5.646;2023-08-07T13:06:56;20.4;52.5
78696;SHT31;68030;51.980;5.646;2023-08-07T13:09:25;20.4;51.9
78696;SHT31;68030;51.980;5.646;2023-08-07T13:11:53;20.4;52.4
78696;SHT31;68030;51.980;5.646;2023-08-07T13:14:22;20.3;50.5
78696;SHT31;68030;51.980;5.646;2023-08-07T13:16:50;20.3;51.6
78696;SHT31;68030;51.980;5.646;2023-08-07T13:19:19;20.3;51.6
78696;SHT31;68030;51.980;5.646;2023-08-07T13:21:47;20.3;52.2
78696;SHT31;68030;51.980;5.646;2023-08-07T13:24:16;20.4;52.0
78696;SHT31;68030;51.980;5.646;2023-08-07T13:26:45;20.5;50.7
78696;SHT31;68030;51.980;5.646;2023-08-07T13:29:14;20.6;49.6
78696;SHT31;68030;51.980;5.646;2023-08-07T13:31:43;20.7;50.9
78696;SHT31;68030;51.980;5.646;2023-08-07T13:34:12;20.8;48.8
78696;SHT31;68030;51.980;5.646;2023-08-07T13:36:41;20.9;49.4
78696;SHT31;68030;51.980;5.646;2023-08-07T13:39:09;20.9;49.5
78696;SHT31;68030;51.980;5.646;2023-08-07T13:41:38;21.0;48.2
78696;SHT31;68030;51.980;5.646;2023-08-07T13:44:06;21.0;48.4
78696;SHT31;68030;51.980;5.646;2023-08-07T13:46:36;21.0;48.6
78696;SHT31;68030;51.980;5.646;2023-08-07T13:49:04;21.1;49.4
78696;SHT31;68030;51.980;5.646;2023-08-07T13:51:33;21.2;47.4
78696;SHT31;68030;51.980;5.646;2023-08-07T13:54:01;21.3;47.5
78696;SHT31;68030;51.980;5.646;2023-08-07T13:56:30;21.4;46.1
78696;SHT31;68030;51.980;5.646;2023-08-07T13:58:59;21.5;48.1
78696;SHT31;68030;51.980;5.646;2023-08-07T14:01:27;21.6;47.6
78696;SHT31;68030;51.980;5.646;2023-08-07T14:03:56;21.8;45.5
78696;SHT31;68030;51.980;5.646;2023-08-07T14:06:26;22.0;45.5
78696;SHT31;68030;51.980;5.646;2023-08-07T14:08:55;22.2;44.2
78696;SHT31;68030;51.980;5.646;2023-08-07T14:11:23;22.3;41.2
78696;SHT31;68030;51.980;5.646;2023-08-07T14:13:56;22.4;40.6
78696;SHT31;68030;51.980;5.646;2023-08-07T14:16:26;22.5;39.8
78696;SHT31;68030;51.980;5.646;2023-08-07T14:18:54;22.5;39.3
78696;SHT31;68030;51.980;5.646;2023-08-07T14:21:23;22.5;40.4
78696;SHT31;68030;51.980;5.646;2023-08-07T14:23:52;22.6;41.0
78696;SHT31;68030;51.980;5.646;2023-08-07T14:26:20;22.6;40.3
78696;SHT31;68030;51.980;5.646;2023-08-07T14:28:49;22.6;41.8
78696;SHT31;68030;51.980;5.646;2023-08-07T14:31:19;22.7;41.7
78696;SHT31;68030;51.980;5.646;2023-08-07T14:33:48;22.7;41.5
78696;SHT31;68030;51.980;5.646;2023-08-07T14:36:16;22.8;41.4
78696;SHT31;68030;51.980;5.646;2023-08-07T14:38:45;22.8;40.9
78696;SHT31;68030;51.980;5.646;2023-08-07T14:41:14;22.9;41.6
78696;SHT31;68030;51.980;5.646;2023-08-07T14:43:42;22.9;40.2
78696;SHT31;68030;51.980;5.646;2023-08-07T14:46:12;22.9;40.6
78696;SHT31;68030;51.980;5.646;2023-08-07T14:48:40;22.9;40.1
78696;SHT31;68030;51.980;5.646;2023-08-07T14:51:09;22.9;41.3
78696;SHT31;68030;51.980;5.646;2023-08-07T14:53:37;22.9;42.8
78696;SHT31;68030;51.980;5.646;2023-08-07T14:56:06;22.9;43.2
78696;SHT31;68030;51.980;5.646;2023-08-07T14:58:35;22.9;43.2
78696;SHT31;68030;51.980;5.646;2023-08-07T15:01:04;22.9;41.8
78696;SHT31;68030;51.980;5.646;2023-08-07T15:03:32;22.9;41.9
78696;SHT31;68030;51.980;5.646;2023-08-07T15:06:01;22.9;42.0
78696;SHT31;68030;51.980;5.646;2023-08-07T15:08:32;22.9;41.2
78696;SHT31;68030;51.980;5.646;2023-08-07T15:11:01;22.9;41.6
78696;SHT31;68030;51.980;5.646;2023-08-07T15:13:29;23.0;42.3
78696;SHT31;68030;51.980;5.646;2023-08-07T15:15:59;23.0;42.1
78696;SHT31;68030;51.980;5.646;2023-08-07T15:18:28;22.9;41.4
78696;SHT31;68030;51.980;5.646;2023-08-07T15:20:58;22.9;41.5
78696;SHT31;68030;51.980;5.646;2023-08-07T15:23:27;22.9;42.1
78696;SHT31;68030;51.980;5.646;2023-08-07T15:25:55;22.8;42.1
78696;SHT31;68030;51.980;5.646;2023-08-07T15:28:25;22.7;41.5
78696;SHT31;68030;51.980;5.646;2023-08-07T15:30:53;22.6;41.1
78696;SHT31;68030;51.980;5.646;2023-08-07T15:33:22;22.5;42.4
78696;SHT31;68030;51.980;5.646;2023-08-07T15:35:53;22.5;42.6
78696;SHT31;68030;51.980;5.646;2023-08-07T15:38:23;22.4;42.9
78696;SHT31;68030;51.980;5.646;2023-08-07T15:40:52;22.3;43.4
78696;SHT31;68030;51.980;5.646;2023-08-07T15:43:22;22.2;44.6
78696;SHT31;68030;51.980;5.646;2023-08-07T15:45:52;22.1;45.5
78696;SHT31;68030;51.980;5.646;2023-08-07T15:48:21;22.0;47.7
78696;SHT31;68030;51.980;5.646;2023-08-07T15:50:51;22.0;48.3
78696;SHT31;68030;51.980;5.646;2023-08-07T15:53:19;21.9;49.3
78696;SHT31;68030;51.980;5.646;2023-08-07T15:55:48;21.8;49.6
78696;SHT31;68030;51.980;5.646;2023-08-07T15:58:17;21.8;50.2
78696;SHT31;68030;51.980;5.646;2023-08-07T16:00:48;21.7;51.1
78696;SHT31;68030;51.980;5.646;2023-08-07T16:03:17;21.6;50.5
78696;SHT31;68030;51.980;5.646;2023-08-07T16:05:49;21.5;49.8
78696;SHT31;68030;51.980;5.646;2023-08-07T16:08:17;21.5;50.2
78696;SHT31;68030;51.980;5.646;2023-08-07T16:10:45;21.4;50.5
78696;SHT31;68030;51.980;5.646;2023-08-07T16:13:14;21.4;51.5
78696;SHT31;68030;51.980;5.646;2023-08-07T16:15:43;21.4;51.5